createdAt,value
2017-07-15T00:00:39.973Z,979.9
2017-07-15T00:01:41.344Z,979.8
2017-07-15T00:02:42.759Z,979.8
2017-07-15T00:03:44.119Z,979.9
2017-07-15T00:04:45.491Z,979.9
2017-07-15T00:05:46.866Z,979.9
2017-07-15T00:06:48.235Z,979.9
2017-07-15T00:07:49.613Z,979.9
2017-07-15T00:08:50.986Z,979.9
2017-07-15T00:09:52.341Z,979.9
2017-07-15T00:10:53.711Z,979.9
2017-07-15T00:11:55.070Z,979.9
2017-07-15T00:12:56.435Z,979.9
2017-07-15T00:13:57.794Z,980.0
2017-07-15T00:14:59.161Z,979.9
2017-07-15T00:16:00.524Z,979.9
2017-07-15T00:17:01.944Z,979.9
2017-07-15T00:18:03.311Z,979.9
2017-07-15T00:19:04.689Z,979.9
2017-07-15T00:20:06.055Z,979.9
2017-07-15T00:21:07.433Z,980.0
2017-07-15T00:22:08.802Z,979.9
2017-07-15T00:23:10.182Z,979.9
2017-07-15T00:24:11.565Z,980.0
2017-07-15T00:25:12.922Z,980.0
2017-07-15T00:26:14.286Z,980.0
2017-07-15T00:27:15.688Z,980.0
2017-07-15T00:28:17.053Z,980.0
2017-07-15T00:29:18.422Z,980.0
2017-07-15T00:30:19.791Z,980.0
2017-07-15T00:31:21.156Z,980.0
2017-07-15T00:32:22.531Z,980.0
2017-07-15T00:33:23.893Z,980.0
2017-07-15T00:34:25.297Z,980.0
2017-07-15T00:35:26.685Z,980.0
2017-07-15T00:36:28.066Z,980.0
2017-07-15T00:37:29.431Z,980.0
2017-07-15T00:38:30.802Z,980.0
2017-07-15T00:39:32.185Z,980.0
2017-07-15T00:40:33.523Z,979.9
2017-07-15T00:41:34.883Z,980.0
2017-07-15T00:42:36.305Z,980.1
2017-07-15T00:43:37.636Z,980.0
2017-07-15T00:44:39.012Z,980.1
2017-07-15T00:45:40.387Z,980.1
2017-07-15T00:46:41.764Z,980.1
2017-07-15T00:47:43.137Z,980.1
2017-07-15T00:48:44.504Z,980.1
2017-07-15T00:49:45.871Z,980.1
2017-07-15T00:50:47.232Z,980.1
2017-07-15T00:51:48.625Z,980.1
2017-07-15T00:52:49.996Z,980.1
2017-07-15T00:53:51.358Z,980.1
2017-07-15T00:54:52.721Z,980.1
2017-07-15T00:55:54.096Z,980.1
2017-07-15T00:56:55.459Z,980.1
2017-07-15T00:57:56.842Z,980.1
2017-07-15T00:58:58.212Z,980.1
2017-07-15T00:59:59.570Z,980.1
2017-07-15T01:01:00.954Z,980.1
2017-07-15T01:02:02.305Z,980.1
2017-07-15T01:03:03.693Z,980.1
2017-07-15T01:04:05.069Z,980.2
2017-07-15T01:05:06.422Z,980.2
2017-07-15T01:06:07.791Z,980.1
2017-07-15T01:07:09.172Z,980.1
2017-07-15T01:08:10.529Z,980.1
2017-07-15T01:09:11.889Z,980.1
2017-07-15T01:10:13.253Z,980.1
2017-07-15T01:11:14.615Z,980.1
2017-07-15T01:12:15.982Z,980.1
2017-07-15T01:13:17.347Z,980.1
2017-07-15T01:14:18.708Z,980.1
2017-07-15T01:15:20.078Z,980.2
2017-07-15T01:16:21.486Z,980.1
2017-07-15T01:17:22.849Z,980.1
2017-07-15T01:18:24.207Z,980.2
2017-07-15T01:19:25.581Z,980.2
2017-07-15T01:20:26.943Z,980.2
2017-07-15T01:21:28.311Z,980.2
2017-07-15T01:22:29.684Z,980.2
2017-07-15T01:23:31.057Z,980.2
2017-07-15T01:24:32.436Z,980.2
2017-07-15T01:25:33.801Z,980.2
2017-07-15T01:26:35.160Z,980.2
2017-07-15T01:27:36.532Z,980.2
2017-07-15T01:28:37.921Z,980.2
2017-07-15T01:29:39.282Z,980.2
2017-07-15T01:30:40.641Z,980.2
2017-07-15T01:31:42.020Z,980.2
2017-07-15T01:32:43.380Z,980.2
2017-07-15T01:33:44.743Z,980.2
2017-07-15T01:34:46.110Z,980.2
2017-07-15T01:35:47.488Z,980.2
2017-07-15T01:36:48.833Z,980.2
2017-07-15T01:37:50.197Z,980.2
2017-07-15T01:38:51.558Z,980.2
2017-07-15T01:39:52.924Z,980.2
2017-07-15T01:40:54.284Z,980.2
2017-07-15T01:41:55.649Z,980.2
2017-07-15T01:42:57.024Z,980.2
2017-07-15T01:43:58.397Z,980.2
2017-07-15T01:44:59.785Z,980.2
2017-07-15T01:46:01.158Z,980.2
2017-07-15T01:47:02.526Z,980.2
2017-07-15T01:48:03.919Z,980.2
2017-07-15T01:49:05.290Z,980.2
2017-07-15T01:50:06.694Z,980.2
2017-07-15T01:51:08.042Z,980.2
2017-07-15T01:52:09.419Z,980.2
2017-07-15T01:53:10.767Z,980.2
2017-07-15T01:54:12.162Z,980.2
2017-07-15T01:55:13.526Z,980.2
2017-07-15T01:56:14.899Z,980.2
2017-07-15T01:57:16.263Z,980.2
2017-07-15T01:58:17.630Z,980.2
2017-07-15T01:59:18.987Z,980.2
2017-07-15T02:00:20.352Z,980.2
2017-07-15T02:01:21.831Z,980.2
2017-07-15T02:02:23.195Z,980.2
2017-07-15T02:03:24.568Z,980.3
2017-07-15T02:04:25.930Z,980.3
2017-07-15T02:05:27.293Z,980.2
2017-07-15T02:06:28.659Z,980.2
2017-07-15T02:07:30.049Z,980.2
2017-07-15T02:08:31.411Z,980.2
2017-07-15T02:09:32.779Z,980.2
2017-07-15T02:10:34.165Z,980.2
2017-07-15T02:11:35.513Z,980.2
2017-07-15T02:12:36.873Z,980.2
2017-07-15T02:13:38.240Z,980.2
2017-07-15T02:14:39.614Z,980.2
2017-07-15T02:15:40.969Z,980.2
2017-07-15T02:16:42.344Z,980.2
2017-07-15T02:17:43.707Z,980.2
2017-07-15T02:18:45.084Z,980.3
2017-07-15T02:19:46.444Z,980.3
2017-07-15T02:20:47.811Z,980.3
2017-07-15T02:21:49.175Z,980.3
2017-07-15T02:22:50.532Z,980.3
2017-07-15T02:23:53.471Z,980.3
2017-07-15T02:24:54.843Z,980.3
2017-07-15T02:25:56.193Z,980.4
2017-07-15T02:26:57.964Z,980.3
2017-07-15T02:27:59.346Z,980.3
2017-07-15T02:29:00.714Z,980.3
2017-07-15T02:30:02.110Z,980.3
2017-07-15T02:31:03.475Z,980.3
2017-07-15T02:32:04.838Z,980.3
2017-07-15T02:33:06.204Z,980.3
2017-07-15T02:34:07.570Z,980.3
2017-07-15T02:35:08.929Z,980.3
2017-07-15T02:36:10.290Z,980.3
2017-07-15T02:37:11.651Z,980.3
2017-07-15T02:38:13.021Z,980.3
2017-07-15T02:39:14.414Z,980.4
2017-07-15T02:40:15.777Z,980.4
2017-07-15T02:41:17.137Z,980.4
2017-07-15T02:42:18.498Z,980.4
2017-07-15T02:43:19.852Z,980.3
2017-07-15T02:44:21.222Z,980.4
2017-07-15T02:45:22.588Z,980.4
2017-07-15T02:46:23.961Z,980.4
2017-07-15T02:47:25.322Z,980.4
2017-07-15T02:48:26.682Z,980.4
2017-07-15T02:49:28.057Z,980.4
2017-07-15T02:50:29.456Z,980.4
2017-07-15T02:51:30.818Z,980.4
2017-07-15T02:52:32.195Z,980.5
2017-07-15T02:53:33.561Z,980.5
2017-07-15T02:54:34.920Z,980.4
2017-07-15T02:55:36.296Z,980.5
2017-07-15T02:56:37.668Z,980.5
2017-07-15T02:57:39.026Z,980.5
2017-07-15T02:58:40.390Z,980.5
2017-07-15T02:59:41.757Z,980.5
2017-07-15T03:00:43.112Z,980.5
2017-07-15T03:01:44.479Z,980.4
2017-07-15T03:02:45.841Z,980.5
2017-07-15T03:03:47.206Z,980.5
2017-07-15T03:04:48.612Z,980.5
2017-07-15T03:05:49.980Z,980.5
2017-07-15T03:06:51.341Z,980.5
2017-07-15T03:07:52.710Z,980.5
2017-07-15T03:08:54.070Z,980.5
2017-07-15T03:09:55.438Z,980.5
2017-07-15T03:10:56.800Z,980.4
2017-07-15T03:11:58.158Z,980.5
2017-07-15T03:12:59.560Z,980.5
2017-07-15T03:14:00.940Z,980.5
2017-07-15T03:15:02.304Z,980.5
2017-07-15T03:16:03.676Z,980.5
2017-07-15T03:17:05.051Z,980.6
2017-07-15T03:18:06.422Z,980.6
2017-07-15T03:19:07.796Z,980.6
2017-07-15T03:20:09.191Z,980.6
2017-07-15T03:21:10.588Z,980.6
2017-07-15T03:22:11.926Z,980.6
2017-07-15T03:23:13.283Z,980.6
2017-07-15T03:24:14.653Z,980.6
2017-07-15T03:25:16.022Z,980.6
2017-07-15T03:26:17.372Z,980.6
2017-07-15T03:27:18.741Z,980.6
2017-07-15T03:28:20.138Z,980.6
2017-07-15T03:29:21.496Z,980.6
2017-07-15T03:30:22.849Z,980.7
2017-07-15T03:31:24.326Z,980.7
2017-07-15T03:32:25.650Z,980.7
2017-07-15T03:33:27.012Z,980.7
2017-07-15T03:34:28.373Z,980.7
2017-07-15T03:35:29.753Z,980.7
2017-07-15T03:36:31.111Z,980.8
2017-07-15T03:37:32.499Z,980.8
2017-07-15T03:38:33.860Z,980.8
2017-07-15T03:39:35.254Z,980.8
2017-07-15T03:40:36.645Z,980.8
2017-07-15T03:41:38.013Z,980.8
2017-07-15T03:42:39.401Z,980.8
2017-07-15T03:43:40.764Z,980.8
2017-07-15T03:44:42.120Z,980.8
2017-07-15T03:45:43.480Z,980.8
2017-07-15T03:46:44.856Z,980.9
2017-07-15T03:47:46.216Z,980.9
2017-07-15T03:48:47.612Z,980.9
2017-07-15T03:49:48.976Z,980.9
2017-07-15T03:50:50.337Z,980.9
2017-07-15T03:51:51.721Z,980.8
2017-07-15T03:52:53.063Z,980.9
2017-07-15T03:53:54.447Z,980.9
2017-07-15T03:54:55.831Z,980.9
2017-07-15T03:55:57.211Z,980.9
2017-07-15T03:56:58.575Z,980.9
2017-07-15T03:57:59.955Z,980.9
2017-07-15T03:59:01.309Z,981.0
2017-07-15T04:00:02.667Z,980.9
2017-07-15T04:01:04.025Z,981.0
2017-07-15T04:02:05.389Z,981.0
2017-07-15T04:03:06.748Z,981.0
2017-07-15T04:04:08.120Z,981.0
2017-07-15T04:05:09.485Z,981.0
2017-07-15T04:06:10.843Z,981.1
2017-07-15T04:07:12.205Z,981.0
2017-07-15T04:08:13.570Z,981.1
2017-07-15T04:09:14.934Z,981.1
2017-07-15T04:10:16.353Z,981.1
2017-07-15T04:11:17.679Z,981.1
2017-07-15T04:12:19.041Z,981.1
2017-07-15T04:13:20.400Z,981.1
2017-07-15T04:14:21.783Z,981.1
2017-07-15T04:15:23.144Z,981.1
2017-07-15T04:16:24.555Z,981.2
2017-07-15T04:17:25.901Z,981.1
2017-07-15T04:18:27.267Z,981.1
2017-07-15T04:19:28.628Z,981.1
2017-07-15T04:20:29.997Z,981.2
2017-07-15T04:21:31.361Z,981.2
2017-07-15T04:22:32.717Z,981.2
2017-07-15T04:23:34.103Z,981.2
2017-07-15T04:24:35.497Z,981.2
2017-07-15T04:25:36.858Z,981.3
2017-07-15T04:26:38.227Z,981.3
2017-07-15T04:27:39.587Z,981.2
2017-07-15T04:28:40.973Z,981.3
2017-07-15T04:29:42.366Z,981.2
2017-07-15T04:30:43.738Z,981.3
2017-07-15T04:31:45.110Z,981.3
2017-07-15T04:32:46.468Z,981.3
2017-07-15T04:33:47.835Z,981.3
2017-07-15T04:34:49.196Z,981.3
2017-07-15T04:35:50.557Z,981.3
2017-07-15T04:36:51.918Z,981.3
2017-07-15T04:37:53.277Z,981.3
2017-07-15T04:38:54.646Z,981.3
2017-07-15T04:39:56.010Z,981.4
2017-07-15T04:40:57.395Z,981.3
2017-07-15T04:41:58.772Z,981.3
2017-07-15T04:43:00.188Z,981.3
2017-07-15T04:44:01.571Z,981.3
2017-07-15T04:45:02.946Z,981.3
2017-07-15T04:46:04.355Z,981.4
2017-07-15T04:47:05.720Z,981.4
2017-07-15T04:48:07.085Z,981.3
2017-07-15T04:49:08.445Z,981.3
2017-07-15T04:50:09.804Z,981.4
2017-07-15T04:51:11.167Z,981.4
2017-07-15T04:52:12.529Z,981.4
2017-07-15T04:53:13.890Z,981.4
2017-07-15T04:54:15.276Z,981.4
2017-07-15T04:55:16.650Z,981.5
2017-07-15T04:56:18.039Z,981.4
2017-07-15T04:57:19.397Z,981.5
2017-07-15T04:58:20.764Z,981.5
2017-07-15T04:59:22.128Z,981.5
2017-07-15T05:00:23.504Z,981.5
2017-07-15T05:01:24.929Z,981.5
2017-07-15T05:02:26.289Z,981.5
2017-07-15T05:03:27.653Z,981.5
2017-07-15T05:04:29.013Z,981.5
2017-07-15T05:05:30.372Z,981.4
2017-07-15T05:06:31.729Z,981.5
2017-07-15T05:07:33.094Z,981.5
2017-07-15T05:08:34.455Z,981.4
2017-07-15T05:09:35.827Z,981.4
2017-07-15T05:10:37.192Z,981.5
2017-07-15T05:11:38.551Z,981.5
2017-07-15T05:12:39.946Z,981.5
2017-07-15T05:13:41.333Z,981.5
2017-07-15T05:14:42.688Z,981.5
2017-07-15T05:15:44.063Z,981.5
2017-07-15T05:16:45.428Z,981.5
2017-07-15T05:17:46.819Z,981.5
2017-07-15T05:18:48.256Z,981.5
2017-07-15T05:19:49.648Z,981.4
2017-07-15T05:20:50.996Z,981.4
2017-07-15T05:21:52.358Z,981.4
2017-07-15T05:22:53.733Z,981.4
2017-07-15T05:23:55.115Z,981.5
2017-07-15T05:24:56.483Z,981.5
2017-07-15T05:25:57.844Z,981.5
2017-07-15T05:26:59.239Z,981.5
2017-07-15T05:28:00.595Z,981.5
2017-07-15T05:29:02.001Z,981.5
2017-07-15T05:30:03.371Z,981.4
2017-07-15T05:31:04.739Z,981.4
2017-07-15T05:32:06.104Z,981.5
2017-07-15T05:33:07.472Z,981.5
2017-07-15T05:34:08.835Z,981.5
2017-07-15T05:35:10.200Z,981.5
2017-07-15T05:36:11.563Z,981.5
2017-07-15T05:37:12.947Z,981.6
2017-07-15T05:38:14.325Z,981.6
2017-07-15T05:39:15.687Z,981.6
2017-07-15T05:40:17.046Z,981.6
2017-07-15T05:41:18.410Z,981.6
2017-07-15T05:42:19.788Z,981.6
2017-07-15T05:43:21.148Z,981.6
2017-07-15T05:44:22.585Z,981.6
2017-07-15T05:45:23.966Z,981.6
2017-07-15T05:46:25.331Z,981.7
2017-07-15T05:47:26.748Z,981.7
2017-07-15T05:48:28.067Z,981.7
2017-07-15T05:49:29.449Z,981.7
2017-07-15T05:50:30.857Z,981.7
2017-07-15T05:51:32.225Z,981.7
2017-07-15T05:52:33.587Z,981.7
2017-07-15T05:53:34.997Z,981.7
2017-07-15T05:54:36.327Z,981.6
2017-07-15T05:55:37.736Z,981.6
2017-07-15T05:56:39.114Z,981.6
2017-07-15T05:57:40.461Z,981.7
2017-07-15T05:58:41.834Z,981.7
2017-07-15T05:59:43.225Z,981.7
2017-07-15T06:00:44.594Z,981.7
2017-07-15T06:01:45.956Z,981.6
2017-07-15T06:02:47.318Z,981.6
2017-07-15T06:03:48.703Z,981.7
2017-07-15T06:04:50.061Z,981.7
2017-07-15T06:05:51.447Z,981.7
2017-07-15T06:06:52.804Z,981.7
2017-07-15T06:07:54.161Z,981.7
2017-07-15T06:08:55.543Z,981.7
2017-07-15T06:09:56.903Z,981.7
2017-07-15T06:10:58.279Z,981.6
2017-07-15T06:11:59.638Z,981.7
2017-07-15T06:13:01.033Z,981.6
2017-07-15T06:14:02.403Z,981.7
2017-07-15T06:15:03.765Z,981.7
2017-07-15T06:16:05.123Z,981.7
2017-07-15T06:17:06.485Z,981.7
2017-07-15T06:18:07.850Z,981.7
2017-07-15T06:19:09.204Z,981.7
2017-07-15T06:20:10.618Z,981.7
2017-07-15T06:21:12.068Z,981.8
2017-07-15T06:22:13.447Z,981.7
2017-07-15T06:23:14.805Z,981.8
2017-07-15T06:24:16.160Z,981.8
2017-07-15T06:25:17.529Z,981.8
2017-07-15T06:26:18.888Z,981.8
2017-07-15T06:27:20.276Z,981.8
2017-07-15T06:28:21.642Z,981.9
2017-07-15T06:29:23.032Z,981.9
2017-07-15T06:30:24.390Z,981.9
2017-07-15T06:31:25.816Z,982.0
2017-07-15T06:32:27.180Z,982.0
2017-07-15T06:33:28.543Z,982.0
2017-07-15T06:34:29.903Z,982.0
2017-07-15T06:35:31.289Z,982.1
2017-07-15T06:36:32.663Z,982.1
2017-07-15T06:37:34.133Z,982.1
2017-07-15T06:38:35.508Z,982.1
2017-07-15T06:39:36.871Z,982.1
2017-07-15T06:40:38.238Z,982.1
2017-07-15T06:41:39.599Z,982.1
2017-07-15T06:42:41.004Z,982.1
2017-07-15T06:43:42.357Z,982.1
2017-07-15T06:44:43.745Z,982.1
2017-07-15T06:45:45.105Z,982.1
2017-07-15T06:46:46.466Z,982.2
2017-07-15T06:47:47.833Z,982.2
2017-07-15T06:48:49.202Z,982.2
2017-07-15T06:49:50.565Z,982.2
2017-07-15T06:50:51.938Z,982.2
2017-07-15T06:51:53.310Z,982.2
2017-07-15T06:52:54.679Z,982.2
2017-07-15T06:53:56.045Z,982.2
2017-07-15T06:54:57.446Z,982.2
2017-07-15T06:55:58.819Z,982.2
2017-07-15T06:57:00.182Z,982.3
2017-07-15T06:58:01.553Z,982.3
2017-07-15T06:59:03.686Z,982.3
2017-07-15T07:00:06.185Z,982.2
2017-07-15T07:01:07.558Z,982.3
2017-07-15T07:02:09.183Z,982.3
2017-07-15T07:03:10.723Z,982.3
2017-07-15T07:04:12.166Z,982.2
2017-07-15T07:05:13.621Z,982.2
2017-07-15T07:06:15.143Z,982.3
2017-07-15T07:07:16.663Z,982.4
2017-07-15T07:08:18.112Z,982.4
2017-07-15T07:09:20.466Z,982.4
2017-07-15T07:10:21.655Z,982.4
2017-07-15T07:11:23.565Z,982.5
2017-07-15T07:12:25.753Z,982.5
2017-07-15T07:13:28.369Z,982.5
2017-07-15T07:14:30.983Z,982.5
2017-07-15T07:15:32.351Z,982.5
2017-07-15T07:16:33.713Z,982.5
2017-07-15T07:17:36.141Z,982.5
2017-07-15T07:18:37.446Z,982.5
2017-07-15T07:19:38.805Z,982.5
2017-07-15T07:20:40.176Z,982.5
2017-07-15T07:21:41.989Z,982.5
2017-07-15T07:22:43.922Z,982.5
2017-07-15T07:23:45.816Z,982.5
2017-07-15T07:24:47.218Z,982.5
2017-07-15T07:25:48.535Z,982.5
2017-07-15T07:26:50.533Z,982.5
2017-07-15T07:27:52.575Z,982.5
2017-07-15T07:28:53.879Z,982.4
2017-07-15T07:29:55.252Z,982.5
2017-07-15T07:30:57.805Z,982.4
2017-07-15T07:31:59.583Z,982.5
2017-07-15T07:33:01.557Z,982.4
2017-07-15T07:34:02.851Z,982.4
2017-07-15T07:35:04.782Z,982.4
2017-07-15T07:36:07.293Z,982.4
2017-07-15T07:37:08.499Z,982.4
2017-07-15T07:38:09.956Z,982.5
2017-07-15T07:39:11.322Z,982.5
2017-07-15T07:40:12.687Z,982.5
2017-07-15T07:41:14.084Z,982.4
2017-07-15T07:42:16.609Z,982.5
2017-07-15T07:43:18.534Z,982.5
2017-07-15T07:44:20.747Z,982.5
2017-07-15T07:45:22.537Z,982.5
2017-07-15T07:46:24.516Z,982.5
2017-07-15T07:47:25.850Z,982.5
2017-07-15T07:48:27.213Z,982.6
2017-07-15T07:49:28.587Z,982.6
2017-07-15T07:50:30.291Z,982.6
2017-07-15T07:51:32.096Z,982.6
2017-07-15T07:52:33.408Z,982.6
2017-07-15T07:53:36.483Z,982.5
2017-07-15T07:54:38.040Z,982.6
2017-07-15T07:55:39.385Z,982.6
2017-07-15T07:56:41.437Z,982.6
2017-07-15T07:57:43.706Z,982.6
2017-07-15T07:58:45.037Z,982.7
2017-07-15T07:59:46.543Z,982.7
2017-07-15T08:00:49.027Z,982.7
2017-07-15T08:01:50.312Z,982.7
2017-07-15T08:02:51.682Z,982.6
2017-07-15T08:03:54.607Z,982.7
2017-07-15T08:04:56.198Z,982.6
2017-07-15T08:05:58.537Z,982.7
2017-07-15T08:07:01.479Z,982.7
2017-07-15T08:08:02.799Z,982.7
2017-07-15T08:09:05.491Z,982.7
2017-07-15T08:10:06.931Z,982.7
2017-07-15T08:11:09.451Z,982.7
2017-07-15T08:12:12.010Z,982.7
2017-07-15T08:13:14.407Z,982.6
2017-07-15T08:14:17.106Z,982.7
2017-07-15T08:15:19.497Z,982.6
2017-07-15T08:16:21.289Z,982.6
2017-07-15T08:17:22.632Z,982.7
2017-07-15T08:18:25.809Z,982.6
2017-07-15T08:19:28.345Z,982.6
2017-07-15T08:20:29.699Z,982.6
2017-07-15T08:21:31.522Z,982.6
2017-07-15T08:22:33.359Z,982.6
2017-07-15T08:23:34.701Z,982.6
2017-07-15T08:24:36.695Z,982.6
2017-07-15T08:25:39.344Z,982.6
2017-07-15T08:26:41.576Z,982.6
2017-07-15T08:27:44.369Z,982.6
2017-07-15T08:28:45.746Z,982.7
2017-07-15T08:29:48.021Z,982.6
2017-07-15T08:30:50.603Z,982.6
2017-07-15T08:31:51.970Z,982.7
2017-07-15T08:32:53.337Z,982.7
2017-07-15T08:33:54.695Z,982.7
2017-07-15T08:34:56.064Z,982.7
2017-07-15T08:35:57.427Z,982.6
2017-07-15T08:36:58.790Z,982.7
2017-07-15T08:38:00.159Z,982.7
2017-07-15T08:39:01.524Z,982.7
2017-07-15T08:40:02.883Z,982.6
2017-07-15T08:41:04.292Z,982.7
2017-07-15T08:42:05.657Z,982.7
2017-07-15T08:43:07.018Z,982.7
2017-07-15T08:44:08.404Z,982.8
2017-07-15T08:45:09.774Z,982.7
2017-07-15T08:46:11.136Z,982.8
2017-07-15T08:47:12.501Z,982.8
2017-07-15T08:48:13.860Z,982.7
2017-07-15T08:49:15.235Z,982.7
2017-07-15T08:50:16.603Z,982.7
2017-07-15T08:51:17.971Z,982.7
2017-07-15T08:52:19.417Z,982.7
2017-07-15T08:53:20.778Z,982.7
2017-07-15T08:54:22.153Z,982.8
2017-07-15T08:55:23.524Z,982.7
2017-07-15T08:56:24.918Z,982.7
2017-07-15T08:57:26.262Z,982.7
2017-07-15T08:58:27.632Z,982.8
2017-07-15T08:59:29.002Z,982.8
2017-07-15T09:00:30.959Z,982.7
2017-07-15T09:01:32.338Z,982.7
2017-07-15T09:02:33.651Z,982.8
2017-07-15T09:03:35.019Z,982.7
2017-07-15T09:04:37.301Z,982.7
2017-07-15T09:05:38.665Z,982.8
2017-07-15T09:06:40.924Z,982.7
2017-07-15T09:07:42.214Z,982.8
2017-07-15T09:08:44.566Z,982.8
2017-07-15T09:09:46.397Z,982.7
2017-07-15T09:10:48.038Z,982.8
2017-07-15T09:11:50.464Z,982.8
2017-07-15T09:12:51.827Z,982.8
2017-07-15T09:13:54.116Z,982.8
2017-07-15T09:14:55.497Z,982.8
2017-07-15T09:15:57.358Z,982.8
2017-07-15T09:16:58.701Z,982.7
2017-07-15T09:18:00.076Z,982.8
2017-07-15T09:19:02.285Z,982.7
2017-07-15T09:20:03.813Z,982.7
2017-07-15T09:21:05.858Z,982.8
2017-07-15T09:22:07.065Z,982.8
2017-07-15T09:23:08.633Z,982.9
2017-07-15T09:24:09.973Z,982.9
2017-07-15T09:25:11.994Z,982.8
2017-07-15T09:26:13.363Z,982.8
2017-07-15T09:27:14.768Z,982.8
2017-07-15T09:28:16.128Z,982.8
2017-07-15T09:29:17.494Z,982.8
2017-07-15T09:30:18.852Z,982.8
2017-07-15T09:31:21.291Z,982.9
2017-07-15T09:32:22.545Z,982.8
2017-07-15T09:33:23.911Z,982.8
2017-07-15T09:34:26.075Z,982.9
2017-07-15T09:35:27.974Z,982.9
2017-07-15T09:36:30.202Z,982.9
2017-07-15T09:37:32.443Z,982.9
2017-07-15T09:38:34.676Z,982.9
2017-07-15T09:39:37.031Z,982.8
2017-07-15T09:40:38.352Z,982.9
2017-07-15T09:41:39.779Z,982.9
2017-07-15T09:42:41.144Z,982.9
2017-07-15T09:43:42.507Z,982.9
2017-07-15T09:44:43.874Z,983.0
2017-07-15T09:45:45.447Z,983.0
2017-07-15T09:46:46.855Z,982.9
2017-07-15T09:47:48.765Z,982.9
2017-07-15T09:48:50.063Z,983.0
2017-07-15T09:49:51.901Z,982.9
2017-07-15T09:50:53.242Z,982.9
2017-07-15T09:51:54.608Z,982.9
2017-07-15T09:52:55.968Z,982.9
2017-07-15T09:53:57.344Z,982.9
2017-07-15T09:54:58.733Z,982.9
2017-07-15T09:56:00.107Z,982.9
2017-07-15T09:57:01.499Z,982.9
2017-07-15T09:58:02.859Z,982.9
2017-07-15T09:59:04.227Z,982.9
2017-07-15T10:00:05.599Z,982.9
2017-07-15T10:01:07.019Z,982.9
2017-07-15T10:02:08.396Z,983.0
2017-07-15T10:03:09.754Z,983.0
2017-07-15T10:04:11.136Z,983.0
2017-07-15T10:05:12.499Z,983.0
2017-07-15T10:06:13.862Z,983.0
2017-07-15T10:07:15.277Z,983.0
2017-07-15T10:08:16.636Z,983.0
2017-07-15T10:09:18.000Z,982.9
2017-07-15T10:10:19.370Z,982.9
2017-07-15T10:11:20.736Z,983.0
2017-07-15T10:12:22.109Z,983.0
2017-07-15T10:13:23.464Z,983.0
2017-07-15T10:14:24.831Z,983.0
2017-07-15T10:15:26.249Z,983.0
2017-07-15T10:16:27.618Z,983.0
2017-07-15T10:17:28.985Z,983.0
2017-07-15T10:18:30.407Z,983.1
2017-07-15T10:19:31.759Z,983.0
2017-07-15T10:20:33.122Z,983.0
2017-07-15T10:21:34.483Z,983.1
2017-07-15T10:22:35.852Z,983.0
2017-07-15T10:23:37.258Z,983.0
2017-07-15T10:24:38.628Z,983.0
2017-07-15T10:25:39.995Z,983.0
2017-07-15T10:26:41.365Z,983.1
2017-07-15T10:27:42.771Z,983.1
2017-07-15T10:28:44.982Z,983.0
2017-07-15T10:29:46.700Z,983.0
2017-07-15T10:30:49.302Z,983.0
2017-07-15T10:31:50.538Z,983.0
2017-07-15T10:32:52.122Z,983.0
2017-07-15T10:33:53.487Z,983.0
2017-07-15T10:34:54.873Z,983.0
2017-07-15T10:35:56.238Z,983.1
2017-07-15T10:36:58.987Z,983.1
2017-07-15T10:38:01.305Z,983.1
2017-07-15T10:39:02.685Z,983.1
2017-07-15T10:40:04.434Z,983.2
2017-07-15T10:41:06.347Z,983.2
2017-07-15T10:42:08.255Z,983.2
2017-07-15T10:43:09.751Z,983.2
2017-07-15T10:44:10.832Z,983.1
2017-07-15T10:45:12.200Z,983.2
2017-07-15T10:46:13.792Z,983.1
2017-07-15T10:47:15.169Z,983.1
2017-07-15T10:48:16.716Z,983.1
2017-07-15T10:49:18.854Z,983.1
2017-07-15T10:50:21.694Z,983.1
2017-07-15T10:51:23.234Z,983.2
2017-07-15T10:52:25.602Z,983.2
2017-07-15T10:53:28.212Z,983.2
2017-07-15T10:54:29.552Z,983.2
2017-07-15T10:55:30.929Z,983.2
2017-07-15T10:56:32.969Z,983.2
2017-07-15T10:57:35.239Z,983.2
2017-07-15T10:58:37.414Z,983.2
2017-07-15T10:59:39.554Z,983.2
2017-07-15T11:00:42.048Z,983.2
2017-07-15T11:01:43.618Z,983.2
2017-07-15T11:02:46.235Z,983.2
2017-07-15T11:03:47.605Z,983.2
2017-07-15T11:04:48.982Z,983.2
2017-07-15T11:05:50.337Z,983.2
2017-07-15T11:06:51.776Z,983.2
2017-07-15T11:07:53.142Z,983.2
2017-07-15T11:08:54.504Z,983.2
2017-07-15T11:09:55.877Z,983.2
2017-07-15T11:10:57.244Z,983.1
2017-07-15T11:11:58.610Z,983.2
2017-07-15T11:12:59.970Z,983.2
2017-07-15T11:14:01.351Z,983.1
2017-07-15T11:15:02.775Z,983.2
2017-07-15T11:16:04.133Z,983.2
2017-07-15T11:17:05.495Z,983.2
2017-07-15T11:18:07.403Z,983.1
2017-07-15T11:19:08.776Z,983.1
2017-07-15T11:20:10.143Z,983.1
2017-07-15T11:21:11.500Z,983.1
2017-07-15T11:22:12.872Z,983.1
2017-07-15T11:23:14.240Z,983.1
2017-07-15T11:24:15.616Z,983.1
2017-07-15T11:25:16.975Z,983.1
2017-07-15T11:26:18.340Z,983.1
2017-07-15T11:27:19.741Z,983.2
2017-07-15T11:28:21.120Z,983.2
2017-07-15T11:29:22.500Z,983.2
2017-07-15T11:30:23.869Z,983.2
2017-07-15T11:31:25.266Z,983.2
2017-07-15T11:32:26.631Z,983.2
2017-07-15T11:33:27.995Z,983.2
2017-07-15T11:34:29.356Z,983.2
2017-07-15T11:35:30.738Z,983.2
2017-07-15T11:36:32.103Z,983.3
2017-07-15T11:37:33.473Z,983.3
2017-07-15T11:38:34.837Z,983.3
2017-07-15T11:39:36.214Z,983.3
2017-07-15T11:40:37.578Z,983.3
2017-07-15T11:41:38.945Z,983.3
2017-07-15T11:42:40.306Z,983.3
2017-07-15T11:43:41.675Z,983.4
2017-07-15T11:44:43.044Z,983.3
2017-07-15T11:45:44.412Z,983.3
2017-07-15T11:46:45.782Z,983.3
2017-07-15T11:47:47.148Z,983.3
2017-07-15T11:48:48.532Z,983.2
2017-07-15T11:49:49.899Z,983.3
2017-07-15T11:50:51.277Z,983.3
2017-07-15T11:51:52.642Z,983.3
2017-07-15T11:52:54.013Z,983.3
2017-07-15T11:53:55.408Z,983.3
2017-07-15T11:54:56.769Z,983.3
2017-07-15T11:55:58.148Z,983.3
2017-07-15T11:56:59.566Z,983.4
2017-07-15T11:58:00.922Z,983.3
2017-07-15T11:59:02.294Z,983.3
2017-07-15T12:00:03.686Z,983.3
2017-07-15T12:01:05.065Z,983.3
2017-07-15T12:02:06.411Z,983.3
2017-07-15T12:03:07.781Z,983.3
2017-07-15T12:04:09.159Z,983.3
2017-07-15T12:05:10.537Z,983.3
2017-07-15T12:06:11.914Z,983.3
2017-07-15T12:07:13.270Z,983.3
2017-07-15T12:08:14.641Z,983.3
2017-07-15T12:09:16.005Z,983.3
2017-07-15T12:10:17.366Z,983.3
2017-07-15T12:11:18.734Z,983.3
2017-07-15T12:12:20.098Z,983.2
2017-07-15T12:13:21.483Z,983.2
2017-07-15T12:14:22.871Z,983.2
2017-07-15T12:15:24.206Z,983.2
2017-07-15T12:16:25.570Z,983.2
2017-07-15T12:17:26.933Z,983.2
2017-07-15T12:18:28.296Z,983.2
2017-07-15T12:19:29.661Z,983.2
2017-07-15T12:20:31.027Z,983.2
2017-07-15T12:21:32.387Z,983.3
2017-07-15T12:22:33.742Z,983.3
2017-07-15T12:23:35.120Z,983.3
2017-07-15T12:24:36.499Z,983.4
2017-07-15T12:25:37.868Z,983.3
2017-07-15T12:26:39.231Z,983.3
2017-07-15T12:27:40.607Z,983.3
2017-07-15T12:28:41.981Z,983.3
2017-07-15T12:29:43.344Z,983.3
2017-07-15T12:30:44.710Z,983.4
2017-07-15T12:31:46.084Z,983.4
2017-07-15T12:32:47.448Z,983.3
2017-07-15T12:33:48.810Z,983.3
2017-07-15T12:34:50.180Z,983.3
2017-07-15T12:35:51.542Z,983.3
2017-07-15T12:36:52.902Z,983.3
2017-07-15T12:37:54.273Z,983.3
2017-07-15T12:38:55.634Z,983.3
2017-07-15T12:39:56.999Z,983.4
2017-07-15T12:40:58.363Z,983.3
2017-07-15T12:41:59.730Z,983.4
2017-07-15T12:43:01.094Z,983.4
2017-07-15T12:44:02.475Z,983.3
2017-07-15T12:45:03.841Z,983.4
2017-07-15T12:46:05.205Z,983.4
2017-07-15T12:47:06.602Z,983.4
2017-07-15T12:48:08.012Z,983.4
2017-07-15T12:49:09.384Z,983.3
2017-07-15T12:50:10.749Z,983.4
2017-07-15T12:51:12.112Z,983.4
2017-07-15T12:52:13.484Z,983.4
2017-07-15T12:53:14.847Z,983.5
2017-07-15T12:54:16.214Z,983.4
2017-07-15T12:55:17.573Z,983.4
2017-07-15T12:56:18.945Z,983.5
2017-07-15T12:57:20.318Z,983.4
2017-07-15T12:58:21.683Z,983.4
2017-07-15T12:59:23.060Z,983.4
2017-07-15T13:00:24.459Z,983.4
2017-07-15T13:01:25.833Z,983.4
2017-07-15T13:02:27.199Z,983.4
2017-07-15T13:03:28.563Z,983.4
2017-07-15T13:04:29.973Z,983.4
2017-07-15T13:05:31.417Z,983.4
2017-07-15T13:06:32.798Z,983.3
2017-07-15T13:07:34.640Z,983.3
2017-07-15T13:08:36.044Z,983.3
2017-07-15T13:09:37.413Z,983.3
2017-07-15T13:10:38.868Z,983.4
2017-07-15T13:11:40.956Z,983.4